createdAt,value
2023-07-18T00:02:57.473Z,1.38
2023-07-18T00:06:00.388Z,1.40
2023-07-18T00:09:05.220Z,1.30
2023-07-18T00:12:09.681Z,1.67
2023-07-18T00:15:14.217Z,1.17
2023-07-18T00:18:16.957Z,1.50
2023-07-18T00:21:19.985Z,1.10
2023-07-18T00:24:22.819Z,1.30
2023-07-18T00:27:25.613Z,2.15
2023-07-18T00:30:29.768Z,1.50
2023-07-18T00:33:32.386Z,1.25
2023-07-18T00:36:35.001Z,1.17
2023-07-18T00:39:37.884Z,1.10
2023-07-18T00:42:40.627Z,1.13
2023-07-18T00:45:45.521Z,1.50
2023-07-18T00:48:48.237Z,1.10
2023-07-18T00:51:50.877Z,1.08
2023-07-18T00:54:53.572Z,1.20
2023-07-18T00:57:56.398Z,3.17
2023-07-18T01:01:01.459Z,1.80
2023-07-18T01:04:04.307Z,1.77
2023-07-18T01:07:07.267Z,1.80
2023-07-18T01:10:17.390Z,1.75
2023-07-18T01:13:20.059Z,0.93
2023-07-18T01:16:24.084Z,0.85
2023-07-18T01:19:26.840Z,1.25
2023-07-18T01:22:30.794Z,0.98
2023-07-18T01:25:34.618Z,1.27
2023-07-18T01:28:37.266Z,1.40
2023-07-18T01:31:39.957Z,1.20
2023-07-18T01:34:42.989Z,1.10
2023-07-18T01:37:47.641Z,1.23
2023-07-18T01:40:50.345Z,1.45
2023-07-18T01:43:53.193Z,1.67
2023-07-18T01:46:55.973Z,1.48
2023-07-18T01:49:58.570Z,1.10
2023-07-18T01:53:02.717Z,1.88
2023-07-18T01:56:05.685Z,1.60
2023-07-18T01:59:08.328Z,1.48
2023-07-18T02:02:11.050Z,2.15
2023-07-18T02:05:14.901Z,1.17
2023-07-18T02:08:18.922Z,1.40
2023-07-18T02:11:21.744Z,1.73
2023-07-18T02:14:24.722Z,1.48
2023-07-18T02:17:27.389Z,1.33
2023-07-18T02:20:30.099Z,1.23
2023-07-18T02:23:34.164Z,1.42
2023-07-18T02:26:36.824Z,1.05
2023-07-18T02:29:39.507Z,1.55
2023-07-18T02:32:42.420Z,1.75
2023-07-18T02:35:49.559Z,1.40
2023-07-18T02:38:53.747Z,1.35
2023-07-18T02:41:56.466Z,1.20
2023-07-18T02:44:59.212Z,1.70
2023-07-18T02:48:01.959Z,1.85
2023-07-18T02:51:04.795Z,1.30
2023-07-18T02:54:08.801Z,1.60
2023-07-18T02:57:11.394Z,1.60
2023-07-18T03:00:21.333Z,1.20
2023-07-18T03:03:24.506Z,1.35
2023-07-18T03:06:27.176Z,1.80
2023-07-18T03:09:34.854Z,2.10
2023-07-18T03:12:37.428Z,1.77
2023-07-18T03:15:40.698Z,1.70
2023-07-18T03:18:43.344Z,1.50
2023-07-18T03:21:46.023Z,1.25
2023-07-18T03:24:49.979Z,1.52
2023-07-18T03:27:53.153Z,1.60
2023-07-18T03:30:55.857Z,1.55
2023-07-18T03:33:58.566Z,1.88
2023-07-18T03:37:01.212Z,2.00
2023-07-18T03:40:07.417Z,1.70
2023-07-18T03:43:10.041Z,1.90
2023-07-18T03:46:12.717Z,1.50
2023-07-18T03:49:15.363Z,1.85
2023-07-18T03:52:18.010Z,1.40
2023-07-18T03:55:22.189Z,1.63
2023-07-18T03:58:24.832Z,1.60
2023-07-18T04:01:27.452Z,1.40
2023-07-18T04:04:31.926Z,1.40
2023-07-18T04:07:34.613Z,1.55
2023-07-18T04:10:38.820Z,1.90
2023-07-18T04:13:41.395Z,2.25
2023-07-18T04:16:44.029Z,2.72
2023-07-18T04:19:46.734Z,2.30
2023-07-18T04:22:49.640Z,2.47
2023-07-18T04:25:57.819Z,2.22
2023-07-18T04:29:00.548Z,2.63
2023-07-18T04:32:03.269Z,2.13
2023-07-18T04:35:07.164Z,2.22
2023-07-18T04:38:10.523Z,3.15
2023-07-18T04:41:14.523Z,2.05
2023-07-18T04:44:17.123Z,2.63
2023-07-18T04:47:19.824Z,1.85
2023-07-18T04:50:22.557Z,1.85
2023-07-18T04:53:27.662Z,2.67
2023-07-18T04:56:31.669Z,2.28
2023-07-18T04:59:35.692Z,2.67
2023-07-18T05:02:39.231Z,2.38
2023-07-18T05:05:43.787Z,3.42
2023-07-18T05:08:47.949Z,3.22
2023-07-18T05:11:52.063Z,3.53
2023-07-18T05:14:54.666Z,1.90
2023-07-18T05:17:57.340Z,2.20
2023-07-18T05:21:00.034Z,3.05
2023-07-18T05:24:02.745Z,2.67
2023-07-18T05:27:07.328Z,2.25
2023-07-18T05:30:13.160Z,3.83
2023-07-18T05:33:15.803Z,2.35
2023-07-18T05:36:18.395Z,3.25
2023-07-18T05:39:21.058Z,3.67
2023-07-18T05:42:25.401Z,2.70
2023-07-18T05:45:28.308Z,3.35
2023-07-18T05:48:31.720Z,3.55
2023-07-18T05:51:34.434Z,6.97
2023-07-18T05:54:39.413Z,4.72
2023-07-18T05:57:43.937Z,5.35
2023-07-18T06:00:46.565Z,4.82
2023-07-18T06:03:49.245Z,6.03
2023-07-18T06:06:51.989Z,5.50
2023-07-18T06:09:54.689Z,4.60
2023-07-18T06:12:58.680Z,6.15
2023-07-18T06:16:01.305Z,5.38
2023-07-18T06:19:04.005Z,5.15
2023-07-18T06:22:06.907Z,4.57
2023-07-18T06:25:10.643Z,5.97
2023-07-18T06:28:14.634Z,7.80
2023-07-18T06:31:17.483Z,7.97
2023-07-18T06:34:20.498Z,7.68
2023-07-18T06:37:23.200Z,7.60
2023-07-18T06:40:25.864Z,9.48
2023-07-18T06:43:29.864Z,8.02
2023-07-18T06:46:32.490Z,9.70
2023-07-18T06:49:35.214Z,9.90
2023-07-18T06:52:37.868Z,8.45
2023-07-18T06:55:42.197Z,7.93
2023-07-18T06:58:46.164Z,12.90
2023-07-18T07:01:48.772Z,10.98
2023-07-18T07:04:51.456Z,11.55
2023-07-18T07:07:54.724Z,10.95
2023-07-18T07:11:04.961Z,11.63
2023-07-18T07:14:09.072Z,11.30
2023-07-18T07:17:11.746Z,11.40
2023-07-18T07:20:15.038Z,10.82
2023-07-18T07:23:17.921Z,9.80
2023-07-18T07:26:20.802Z,10.35
2023-07-18T07:29:24.862Z,10.05
2023-07-18T07:32:28.093Z,8.90
2023-07-18T07:35:31.085Z,8.23
2023-07-18T07:38:33.773Z,7.20
2023-07-18T07:41:36.423Z,9.55
2023-07-18T07:44:40.341Z,10.63
2023-07-18T07:47:43.018Z,7.10
2023-07-18T07:50:45.708Z,6.20
2023-07-18T07:53:48.335Z,10.30
2023-07-18T07:56:51.114Z,6.40
2023-07-18T07:59:55.132Z,8.30
2023-07-18T08:02:57.724Z,4.93
2023-07-18T08:06:01.534Z,8.68
2023-07-18T08:09:04.457Z,6.82
2023-07-18T08:12:08.480Z,5.60
2023-07-18T08:15:12.602Z,8.15
2023-07-18T08:18:15.160Z,5.43
2023-07-18T08:21:20.115Z,7.88
2023-07-18T08:24:23.314Z,6.72
2023-07-18T08:27:25.902Z,5.72
2023-07-18T08:30:29.936Z,6.53
2023-07-18T08:33:32.652Z,7.07
2023-07-18T08:36:36.831Z,6.38
2023-07-18T08:39:39.477Z,6.97
2023-07-18T08:42:42.231Z,6.90
2023-07-18T08:45:46.286Z,7.03
2023-07-18T08:48:49.439Z,7.47
2023-07-18T08:51:53.520Z,7.72
2023-07-18T08:54:56.129Z,6.93
2023-07-18T08:57:58.857Z,8.25
2023-07-18T09:01:02.857Z,5.50
2023-07-18T09:04:05.854Z,6.43
2023-07-18T09:07:09.171Z,6.57
2023-07-18T09:10:11.870Z,5.47
2023-07-18T09:13:14.489Z,4.55
2023-07-18T09:16:19.289Z,4.32
2023-07-18T09:19:22.013Z,4.25
2023-07-18T09:22:25.389Z,6.47
2023-07-18T09:25:28.761Z,5.15
2023-07-18T09:28:33.700Z,4.32
2023-07-18T09:31:38.052Z,4.32
2023-07-18T09:34:40.750Z,3.28
2023-07-18T09:37:46.646Z,4.43
2023-07-18T09:40:50.760Z,3.55
2023-07-18T09:44:05.993Z,2.90
2023-07-18T09:47:17.677Z,2.92
2023-07-18T09:50:20.396Z,2.55
2023-07-18T09:53:23.137Z,2.13
2023-07-18T09:56:26.252Z,2.35
2023-07-18T09:59:29.350Z,2.42
2023-07-18T10:02:33.751Z,3.25
2023-07-18T10:05:36.473Z,3.97
2023-07-18T10:08:39.279Z,3.63
2023-07-18T10:12:09.634Z,2.35
2023-07-18T10:15:12.402Z,2.67
2023-07-18T10:18:19.651Z,3.45
2023-07-18T10:21:29.636Z,2.85
2023-07-18T10:24:33.276Z,2.20
2023-07-18T10:27:39.935Z,2.30
2023-07-18T10:30:43.800Z,2.50
2023-07-18T10:34:12.285Z,2.20
2023-07-18T10:37:15.478Z,1.92
2023-07-18T10:40:32.658Z,2.35
2023-07-18T10:43:35.451Z,1.40
2023-07-18T10:46:39.410Z,1.90
2023-07-18T10:49:43.797Z,2.70
2023-07-18T10:52:46.490Z,1.55
2023-07-18T10:55:49.427Z,1.85
2023-07-18T10:58:53.318Z,1.92
2023-07-18T11:01:56.218Z,1.58
2023-07-18T11:05:00.371Z,1.63
2023-07-18T11:08:03.380Z,1.50
2023-07-18T11:11:06.557Z,1.60
2023-07-18T11:14:09.270Z,1.15
2023-07-18T11:17:13.856Z,0.88
2023-07-18T11:20:17.988Z,0.95
2023-07-18T11:23:21.209Z,1.02
2023-07-18T11:26:23.836Z,0.90
2023-07-18T11:29:27.656Z,1.25
2023-07-18T11:32:34.698Z,0.90
2023-07-18T11:35:38.652Z,1.55
2023-07-18T11:38:41.605Z,1.20
2023-07-18T11:41:45.044Z,1.67
2023-07-18T11:44:48.930Z,1.55
2023-07-18T11:47:53.439Z,1.00
2023-07-18T11:50:57.541Z,0.82
2023-07-18T11:54:00.216Z,0.68
2023-07-18T11:57:03.771Z,0.95
2023-07-18T12:00:09.616Z,1.45
2023-07-18T12:03:12.743Z,1.00
2023-07-18T12:06:17.305Z,0.80
2023-07-18T12:09:20.040Z,0.80
2023-07-18T12:12:22.697Z,0.90
2023-07-18T12:15:25.562Z,1.02
2023-07-18T12:18:28.231Z,1.33
2023-07-18T12:21:32.297Z,0.93
2023-07-18T12:24:34.978Z,1.13
2023-07-18T12:27:38.148Z,0.90
2023-07-18T12:30:40.787Z,0.60
2023-07-18T12:33:43.408Z,0.77
2023-07-18T12:36:47.346Z,1.02
2023-07-18T12:39:49.946Z,1.08
2023-07-18T12:42:52.710Z,1.20
2023-07-18T12:45:56.796Z,0.68
2023-07-18T12:52:07.130Z,0.80
2023-07-18T12:55:10.156Z,0.98
2023-07-18T12:58:12.828Z,0.70
2023-07-18T13:01:15.757Z,0.80
2023-07-18T13:04:18.371Z,0.88
2023-07-18T13:07:22.594Z,1.20
2023-07-18T13:10:25.228Z,0.82
2023-07-18T13:13:27.821Z,0.98
2023-07-18T13:16:30.491Z,0.90
2023-07-18T13:19:33.178Z,0.70
2023-07-18T13:22:37.202Z,0.80
2023-07-18T13:25:39.843Z,0.55
2023-07-18T13:28:42.641Z,1.75
2023-07-18T13:31:45.426Z,0.70
2023-07-18T13:34:48.426Z,0.70
2023-07-18T13:37:52.447Z,0.70
2023-07-18T13:40:55.172Z,0.77
2023-07-18T13:43:58.597Z,0.50
2023-07-18T13:47:01.373Z,1.13
2023-07-18T13:53:20.871Z,0.70
2023-07-18T13:56:23.742Z,0.80
2023-07-18T13:59:26.963Z,0.60
2023-07-18T14:02:29.631Z,0.80
2023-07-18T14:05:32.328Z,0.65
2023-07-18T14:08:36.380Z,0.70
2023-07-18T14:11:39.030Z,0.73
2023-07-18T14:14:41.707Z,0.70
2023-07-18T14:17:44.339Z,0.70
2023-07-18T14:20:48.180Z,1.13
2023-07-18T14:23:52.423Z,0.80
2023-07-18T14:26:55.153Z,0.82
2023-07-18T14:29:57.833Z,0.77
2023-07-18T14:33:01.049Z,0.95
2023-07-18T14:36:05.504Z,0.60
2023-07-18T14:39:10.085Z,0.50
2023-07-18T14:42:12.745Z,0.85
2023-07-18T14:45:15.362Z,0.90
2023-07-18T14:48:18.020Z,1.38
2023-07-18T14:51:21.357Z,0.50
2023-07-18T14:54:25.338Z,0.90
2023-07-18T14:57:28.016Z,0.63
2023-07-18T15:00:30.720Z,0.93
2023-07-18T15:03:33.503Z,0.60
2023-07-18T15:06:36.216Z,0.93
2023-07-18T15:09:40.264Z,0.60
2023-07-18T15:12:45.544Z,0.63
2023-07-18T15:15:48.170Z,1.08
2023-07-18T15:18:51.553Z,0.80
2023-07-18T15:21:54.700Z,0.70
2023-07-18T15:24:58.675Z,0.90
2023-07-18T15:28:01.515Z,0.93
2023-07-18T15:31:04.321Z,1.20
2023-07-18T15:34:07.066Z,0.63
2023-07-18T15:37:09.704Z,0.55
2023-07-18T15:40:14.073Z,1.55
2023-07-18T15:43:16.688Z,0.88
2023-07-18T15:46:19.576Z,0.98
2023-07-18T15:49:22.523Z,1.65
2023-07-18T15:52:27.669Z,0.80
2023-07-18T15:55:31.749Z,0.70
2023-07-18T15:58:34.563Z,0.50
2023-07-18T16:01:37.721Z,0.45
2023-07-18T16:04:40.461Z,0.40
2023-07-18T16:07:43.132Z,0.77
2023-07-18T16:10:47.105Z,0.40
2023-07-18T16:13:49.902Z,0.60
2023-07-18T16:16:52.778Z,0.63
2023-07-18T16:19:57.145Z,0.65
2023-07-18T16:22:59.922Z,0.70
2023-07-18T16:26:03.957Z,0.40
2023-07-18T16:29:06.654Z,0.88
2023-07-18T16:32:09.446Z,0.70
2023-07-18T16:35:12.171Z,1.05
2023-07-18T16:38:14.733Z,0.50
2023-07-18T16:41:18.983Z,0.50
2023-07-18T16:44:22.033Z,0.85
2023-07-18T16:47:24.770Z,0.50
2023-07-18T16:50:27.544Z,0.43
2023-07-18T16:53:30.308Z,0.50
2023-07-18T16:56:36.580Z,0.60
2023-07-18T16:59:39.389Z,0.63
2023-07-18T17:02:42.636Z,1.38
2023-07-18T17:05:45.320Z,0.57
2023-07-18T17:08:47.997Z,0.45
2023-07-18T17:11:51.955Z,0.52
2023-07-18T17:14:56.133Z,0.68
2023-07-18T17:17:58.903Z,0.45
2023-07-18T17:21:01.529Z,0.68
2023-07-18T17:24:05.490Z,0.68
2023-07-18T17:27:09.512Z,0.60
2023-07-18T17:30:12.659Z,0.73
2023-07-18T17:33:15.571Z,0.57
2023-07-18T17:36:18.426Z,0.70
2023-07-18T17:39:21.485Z,0.43
2023-07-18T17:42:26.347Z,0.50
2023-07-18T17:45:29.046Z,0.55
2023-07-18T17:48:31.714Z,0.75
2023-07-18T17:51:34.364Z,0.47
2023-07-18T17:54:37.062Z,0.60
2023-07-18T17:57:41.062Z,0.63
2023-07-18T18:00:45.135Z,0.40
2023-07-18T18:03:47.885Z,0.50
2023-07-18T18:06:50.659Z,1.35
2023-07-18T18:09:53.353Z,1.48
2023-07-18T18:12:57.386Z,0.60
2023-07-18T18:16:08.213Z,0.57
2023-07-18T18:19:11.776Z,0.50
2023-07-18T18:22:14.380Z,1.45
2023-07-18T18:25:17.180Z,0.60
2023-07-18T18:28:22.870Z,0.60
2023-07-18T18:31:25.854Z,0.68
2023-07-18T18:34:29.277Z,0.98
2023-07-18T18:37:31.922Z,0.80
2023-07-18T18:40:34.563Z,0.32
2023-07-18T18:43:38.569Z,0.50
2023-07-18T18:46:41.227Z,0.82
2023-07-18T18:49:44.044Z,0.70
2023-07-18T18:52:46.705Z,1.00
2023-07-18T18:55:49.316Z,0.60
2023-07-18T18:58:53.351Z,0.60
2023-07-18T19:01:56.061Z,0.70
2023-07-18T19:04:58.770Z,1.20
2023-07-18T19:08:01.413Z,0.75
2023-07-18T19:11:07.854Z,1.00
2023-07-18T19:14:12.612Z,0.82
2023-07-18T19:17:15.306Z,1.23
2023-07-18T19:20:18.013Z,1.33
2023-07-18T19:23:20.719Z,0.57
2023-07-18T19:26:23.418Z,0.75
2023-07-18T19:29:27.429Z,0.73
2023-07-18T19:32:30.188Z,0.70
2023-07-18T19:35:32.995Z,0.50
2023-07-18T19:38:36.626Z,0.70
2023-07-18T19:41:40.647Z,0.65
2023-07-18T19:44:46.991Z,0.70
2023-07-18T19:47:51.090Z,0.65
2023-07-18T19:50:53.793Z,0.75
2023-07-18T19:53:57.562Z,0.85
2023-07-18T19:57:00.203Z,0.80
2023-07-18T20:00:07.058Z,0.88
2023-07-18T20:06:12.529Z,0.75
2023-07-18T20:09:15.629Z,1.27
2023-07-18T20:12:18.367Z,0.63
2023-07-18T20:15:22.390Z,0.88
2023-07-18T20:18:25.645Z,1.00
2023-07-18T20:21:28.322Z,0.60
2023-07-18T20:24:30.962Z,0.80
2023-07-18T20:27:38.486Z,0.60
2023-07-18T20:30:42.435Z,0.82
2023-07-18T20:33:45.147Z,1.10
2023-07-18T20:36:49.260Z,1.25
2023-07-18T20:39:51.977Z,1.15
2023-07-18T20:42:54.601Z,1.45
2023-07-18T20:45:59.995Z,1.40
2023-07-18T20:49:03.876Z,1.30
2023-07-18T20:52:08.228Z,1.70
2023-07-18T20:55:10.902Z,1.60
2023-07-18T20:58:13.947Z,2.05
2023-07-18T21:01:18.234Z,2.55
2023-07-18T21:04:21.146Z,3.33
2023-07-18T21:07:23.930Z,4.90
2023-07-18T21:10:26.688Z,5.60
2023-07-18T21:13:29.396Z,4.43
2023-07-18T21:16:34.533Z,4.25
2023-07-18T21:19:37.275Z,3.83
2023-07-18T21:22:40.015Z,2.88
2023-07-18T21:25:43.750Z,2.95
2023-07-18T21:29:02.108Z,3.85
2023-07-18T21:32:09.566Z,3.78
2023-07-18T21:35:12.314Z,3.75
2023-07-18T21:38:15.016Z,4.93
2023-07-18T21:41:20.369Z,5.40
2023-07-18T21:44:23.381Z,5.75
2023-07-18T21:47:27.594Z,6.35
2023-07-18T21:50:30.338Z,3.83
2023-07-18T21:53:33.312Z,4.88
2023-07-18T21:56:35.951Z,6.28
2023-07-18T21:59:38.572Z,4.80
2023-07-18T22:02:42.781Z,4.13
2023-07-18T22:05:45.478Z,3.90
2023-07-18T22:08:48.139Z,5.13
2023-07-18T22:11:51.672Z,3.90
2023-07-18T22:14:54.511Z,3.80
2023-07-18T22:18:08.934Z,3.25
2023-07-18T22:21:14.928Z,2.83
2023-07-18T22:24:18.076Z,3.30
2023-07-18T22:27:20.699Z,3.05
2023-07-18T22:30:23.370Z,2.78
2023-07-18T22:33:27.642Z,3.67
2023-07-18T22:36:30.244Z,3.33
2023-07-18T22:39:36.564Z,3.50
2023-07-18T22:42:40.139Z,2.10
2023-07-18T22:45:43.175Z,2.08
2023-07-18T22:48:47.302Z,2.10
2023-07-18T22:51:49.984Z,2.10
2023-07-18T22:54:52.562Z,2.22
2023-07-18T22:57:55.218Z,1.60
2023-07-18T23:00:57.925Z,1.80
2023-07-18T23:04:02.012Z,1.58
2023-07-18T23:07:05.392Z,1.48
2023-07-18T23:10:09.150Z,2.83
2023-07-18T23:13:12.539Z,1.90
2023-07-18T23:16:16.103Z,2.05
2023-07-18T23:19:20.156Z,1.60
2023-07-18T23:22:22.866Z,1.70
2023-07-18T23:25:26.025Z,1.65
2023-07-18T23:28:28.680Z,1.73
2023-07-18T23:31:31.372Z,1.70
2023-07-18T23:34:35.344Z,1.80
2023-07-18T23:37:38.024Z,1.80
2023-07-18T23:40:40.668Z,1.40
2023-07-18T23:43:43.404Z,1.85
2023-07-18T23:46:46.055Z,1.80
2023-07-18T23:49:50.070Z,2.05
2023-07-18T23:52:52.782Z,1.98
2023-07-18T23:55:56.068Z,1.90
2023-07-18T23:58:58.761Z,1.58
